createdAt,value
2019-05-21T04:51:13.666Z,12.5
2019-05-21T04:52:20.300Z,12.5
2019-05-21T04:53:20.289Z,12.6
2019-05-21T04:54:20.291Z,12.7
2019-05-21T04:55:20.301Z,12.7
2019-05-21T04:56:20.341Z,12.5
2019-05-21T04:57:30.407Z,12.7
2019-05-21T04:58:20.357Z,12.7
2019-05-21T04:59:20.372Z,12.7
2019-05-21T05:00:20.402Z,12.7
2019-05-21T05:01:20.489Z,12.7
2019-05-21T05:03:20.540Z,12.8
2019-05-21T05:04:10.587Z,12.8
2019-05-21T05:05:10.612Z,12.9
2019-05-21T05:06:10.632Z,12.8
2019-05-21T05:07:27.971Z,12.8
2019-05-21T05:08:10.649Z,12.8
2019-05-21T05:09:10.667Z,12.7
2019-05-21T05:10:10.686Z,12.8
2019-05-21T05:11:10.723Z,12.9
2019-05-21T05:12:20.737Z,12.8
2019-05-21T05:13:20.745Z,12.9
2019-05-21T05:14:20.766Z,12.9
2019-05-21T05:15:20.777Z,13.0
2019-05-21T05:16:20.791Z,12.9
2019-05-21T05:17:30.807Z,13.0
2019-05-21T05:18:10.826Z,13.0
2019-05-21T05:19:10.909Z,12.9
2019-05-21T05:20:10.923Z,13.0
2019-05-21T05:21:11.010Z,13.0
2019-05-21T05:22:31.073Z,13.1
2019-05-21T05:23:11.074Z,13.0
2019-05-21T05:24:11.071Z,13.1
2019-05-21T05:25:11.065Z,13.1
2019-05-21T05:26:11.187Z,13.1
2019-05-21T05:28:21.220Z,13.1
2019-05-21T05:29:21.225Z,13.2
2019-05-21T05:30:21.255Z,13.1
2019-05-21T05:31:14.604Z,13.1
2019-05-21T05:32:11.280Z,13.1
2019-05-21T05:58:22.156Z,13.4
2019-05-21T05:58:52.203Z,13.5
2019-05-21T05:59:52.289Z,13.5
2019-05-21T06:00:52.274Z,13.6
2019-05-21T06:02:52.419Z,13.4
2019-05-21T06:03:52.462Z,13.4
2019-05-21T06:04:52.476Z,13.4
2019-05-21T06:05:52.463Z,13.5
2019-05-21T06:07:59.584Z,13.5
2019-05-21T06:08:42.501Z,13.5
2019-05-21T06:09:22.515Z,13.5
2019-05-21T06:10:22.557Z,13.5
2019-05-21T06:11:42.638Z,13.5
2019-05-21T06:12:42.646Z,13.5
2019-05-21T06:13:12.658Z,13.5
2019-05-21T06:14:12.703Z,13.3
2019-05-21T06:15:12.700Z,13.4
2019-05-21T06:16:12.715Z,13.3
2019-05-21T06:18:12.827Z,13.3
2019-05-21T06:19:12.817Z,13.5
2019-05-21T06:20:12.806Z,13.4
2019-05-21T06:21:12.865Z,13.4
2019-05-21T06:23:12.892Z,13.4
2019-05-21T06:24:13.723Z,13.4
2019-05-21T06:25:12.913Z,13.4
2019-05-21T06:26:12.953Z,13.4
2019-05-21T06:28:13.022Z,13.3
2019-05-21T06:29:13.058Z,13.3
2019-05-21T06:30:13.119Z,13.4
2019-05-21T06:31:13.130Z,13.3
2019-05-21T06:33:13.163Z,13.3
2019-05-21T06:34:13.185Z,13.4
2019-05-21T06:35:13.285Z,13.3
2019-05-21T06:36:13.209Z,13.4
2019-05-21T06:37:23.228Z,13.5
2019-05-21T06:42:13.295Z,13.4
2019-05-21T06:47:13.492Z,13.5
2019-05-21T06:52:23.560Z,13.6
2019-05-21T06:57:23.638Z,13.6
2019-05-21T06:57:53.638Z,13.7
2019-05-21T06:58:53.645Z,13.7
2019-05-21T06:59:53.706Z,13.7
2019-05-21T07:00:53.699Z,13.7
2019-05-21T07:02:13.749Z,13.7
2019-05-21T07:02:53.748Z,13.8
2019-05-21T07:03:53.786Z,13.8
2019-05-21T07:04:53.791Z,13.7
2019-05-21T07:05:58.595Z,13.9
2019-05-21T07:07:13.870Z,13.8
2019-05-21T07:07:53.870Z,13.9
2019-05-21T07:08:53.880Z,13.9
2019-05-21T07:09:53.931Z,13.9
2019-05-21T07:10:53.955Z,14.0
2019-05-21T07:12:13.927Z,13.9
2019-05-21T07:12:53.950Z,14.0
2019-05-21T07:13:53.967Z,14.0
2019-05-21T07:14:53.975Z,13.9
2019-05-21T07:15:54.035Z,14.0
2019-05-21T07:17:14.067Z,14.0
2019-05-21T07:17:54.034Z,14.0
2019-05-21T07:18:44.101Z,14.0
2019-05-21T07:19:44.163Z,14.1
2019-05-21T07:20:44.192Z,14.0
2019-05-21T07:22:54.322Z,14.1
2019-05-21T07:23:54.280Z,14.0
2019-05-21T07:24:54.297Z,14.1
2019-05-21T07:25:54.308Z,14.2
2019-05-21T07:27:14.365Z,14.2
2019-05-21T07:27:54.373Z,14.2
2019-05-21T07:28:44.384Z,14.3
2019-05-21T07:29:44.419Z,14.3
2019-05-21T07:30:44.420Z,14.4
2019-05-21T07:32:54.603Z,14.4
2019-05-21T07:33:54.445Z,14.5
2019-05-21T07:34:54.465Z,14.4
2019-05-21T07:35:54.477Z,14.4
2019-05-21T07:37:14.502Z,14.4
2019-05-21T07:37:54.618Z,14.5
2019-05-21T07:38:53.001Z,14.6
2019-05-21T07:39:44.564Z,14.5
2019-05-21T07:40:44.588Z,14.6
2019-05-21T07:42:54.734Z,14.7
2019-05-21T07:43:54.748Z,14.6
2019-05-21T07:44:54.764Z,14.6
2019-05-21T07:45:54.764Z,14.7
2019-05-21T07:47:14.814Z,14.6
2019-05-21T07:47:54.828Z,14.7
2019-05-21T07:48:44.827Z,14.6
2019-05-21T07:49:44.843Z,14.7
2019-05-21T07:50:44.847Z,14.7
2019-05-21T07:52:55.012Z,14.8
2019-05-21T07:53:54.997Z,14.8
2019-05-21T07:54:55.020Z,14.9
2019-05-21T07:55:55.033Z,14.8
2019-05-21T07:57:15.130Z,15.0
2019-05-21T07:57:55.114Z,14.9
2019-05-21T07:58:45.122Z,15.1
2019-05-21T07:59:45.153Z,15.1
2019-05-21T08:00:45.189Z,15.1
2019-05-21T08:02:55.223Z,15.1
2019-05-21T08:03:55.264Z,15.3
2019-05-21T08:04:55.304Z,15.2
2019-05-21T08:05:55.326Z,15.3
2019-05-21T08:07:15.352Z,15.3
2019-05-21T08:07:55.347Z,15.3
2019-05-21T08:08:45.348Z,15.4
2019-05-21T08:09:45.362Z,15.4
2019-05-21T08:10:45.379Z,15.3
2019-05-21T08:12:55.424Z,15.3
2019-05-21T08:13:55.450Z,15.3
2019-05-21T08:14:55.484Z,15.2
2019-05-21T08:15:55.510Z,15.3
2019-05-21T08:17:15.700Z,15.3
2019-05-21T08:17:55.756Z,15.2
2019-05-21T08:18:45.750Z,15.1
2019-05-21T08:19:45.761Z,15.2
2019-05-21T08:20:45.784Z,15.3
2019-05-21T08:22:55.882Z,15.3
2019-05-21T08:23:55.923Z,15.3
2019-05-21T08:24:55.979Z,15.4
2019-05-21T08:25:56.014Z,15.5
2019-05-21T08:27:16.015Z,15.6
2019-05-21T08:27:56.067Z,15.7
2019-05-21T08:28:56.105Z,15.7
2019-05-21T08:29:46.038Z,15.7
2019-05-21T08:30:46.058Z,15.8
2019-05-21T08:32:56.119Z,15.9
2019-05-21T08:33:56.110Z,16.0
2019-05-21T08:34:56.140Z,16.1
2019-05-21T08:35:56.161Z,16.1
2019-05-21T08:36:56.168Z,16.2
2019-05-21T08:37:56.248Z,16.1
2019-05-21T08:38:56.303Z,16.0
2019-05-21T08:39:56.303Z,16.1
2019-05-21T08:40:56.519Z,16.1
2019-05-21T08:42:16.512Z,16.2
2019-05-21T08:42:56.572Z,16.2
2019-05-21T08:43:56.561Z,16.2
2019-05-21T08:44:56.632Z,16.2
2019-05-21T08:45:56.644Z,16.2
2019-05-21T08:47:56.662Z,16.4
2019-05-21T08:48:56.678Z,16.3
2019-05-21T08:49:56.688Z,16.3
2019-05-21T08:50:56.715Z,16.4
2019-05-21T08:52:16.736Z,16.4
2019-05-21T08:52:56.739Z,16.4
2019-05-21T08:53:56.747Z,16.5
2019-05-21T08:54:56.833Z,16.5
2019-05-21T08:55:56.820Z,16.5
2019-05-21T08:58:06.767Z,16.7
2019-05-21T08:58:56.834Z,16.7
2019-05-21T08:59:56.842Z,17.0
2019-05-21T09:00:56.859Z,16.9
2019-05-21T09:01:59.009Z,16.9
2019-05-21T09:02:56.891Z,16.9
2019-05-21T09:03:56.911Z,16.9
2019-05-21T09:04:56.928Z,16.9
2019-05-21T09:05:56.963Z,17.0
2019-05-21T09:07:16.966Z,17.0
2019-05-21T09:07:56.974Z,17.0
2019-05-21T09:08:57.010Z,16.9
2019-05-21T09:09:57.019Z,16.9
2019-05-21T09:10:57.030Z,16.9
2019-05-21T09:11:57.043Z,16.9
2019-05-21T09:12:57.084Z,17.1
2019-05-21T09:13:47.089Z,17.1
2019-05-21T09:14:47.095Z,17.2
2019-05-21T09:15:47.206Z,17.1
2019-05-21T09:16:47.148Z,17.1
2019-05-21T09:17:47.157Z,17.1
2019-05-21T09:18:47.191Z,17.0
2019-05-21T09:19:47.203Z,17.0
2019-05-21T09:20:47.340Z,17.0
2019-05-21T09:21:47.364Z,16.9
2019-05-21T09:22:47.373Z,16.9
2019-05-21T09:23:47.390Z,16.8
2019-05-21T09:24:47.398Z,16.9
2019-05-21T09:25:49.509Z,16.9
2019-05-21T09:26:47.431Z,16.9
2019-05-21T09:27:47.445Z,16.9
2019-05-21T09:28:47.480Z,16.8
2019-05-21T09:29:47.459Z,17.0
2019-05-21T09:30:47.507Z,17.0
2019-05-21T09:31:47.489Z,17.2
2019-05-21T09:32:47.506Z,17.2
2019-05-21T09:33:47.517Z,17.3
2019-05-21T09:34:49.005Z,17.4
2019-05-21T09:35:47.557Z,17.4
2019-05-21T09:36:47.550Z,17.4
2019-05-21T09:37:47.547Z,17.5
2019-05-21T09:38:47.567Z,17.6
2019-05-21T09:39:47.588Z,17.7
2019-05-21T09:40:47.620Z,17.8
2019-05-21T09:41:47.620Z,17.9
2019-05-21T09:42:47.646Z,17.8
2019-05-21T09:43:47.657Z,17.8
2019-05-21T09:44:47.759Z,17.7
2019-05-21T09:45:47.716Z,17.7
2019-05-21T09:46:47.738Z,17.6
2019-05-21T09:47:47.758Z,17.5
2019-05-21T09:48:47.769Z,17.7
2019-05-21T09:49:47.809Z,17.6
2019-05-21T09:50:47.795Z,17.6
2019-05-21T09:51:47.821Z,17.6
2019-05-21T09:52:47.834Z,17.5
2019-05-21T09:53:47.847Z,17.4
2019-05-21T09:54:47.912Z,17.2
2019-05-21T09:55:47.919Z,17.0
2019-05-21T09:56:47.923Z,17.0
2019-05-21T09:57:47.935Z,17.1
2019-05-21T09:58:47.996Z,17.2
2019-05-21T09:59:48.062Z,17.2
2019-05-21T10:00:48.021Z,17.3
2019-05-21T10:01:48.503Z,17.2
2019-05-21T10:03:48.074Z,17.2
2019-05-21T10:04:48.092Z,17.3
2019-05-21T10:05:48.099Z,17.1
2019-05-21T10:06:48.108Z,17.3
2019-05-21T10:07:48.113Z,17.3
2019-05-21T10:08:48.152Z,17.3
2019-05-21T10:09:48.204Z,17.4
2019-05-21T10:10:48.176Z,17.4
2019-05-21T10:11:48.188Z,17.3
2019-05-21T10:12:48.201Z,17.1
2019-05-21T10:13:48.223Z,17.2
2019-05-21T10:14:48.228Z,17.0
2019-05-21T10:15:48.262Z,17.1
2019-05-21T10:16:48.275Z,17.0
2019-05-21T10:17:48.293Z,17.1
2019-05-21T10:18:48.459Z,17.1
2019-05-21T10:19:48.398Z,17.1
2019-05-21T10:20:48.402Z,17.1
2019-05-21T10:21:48.441Z,17.1
2019-05-21T10:22:48.486Z,17.0
2019-05-21T10:23:48.504Z,17.1
2019-05-21T10:24:48.503Z,17.3
2019-05-21T10:25:48.554Z,17.4
2019-05-21T10:26:48.531Z,17.6
2019-05-21T10:27:48.545Z,17.7
2019-05-21T10:28:48.583Z,17.9
2019-05-21T10:29:48.611Z,17.9
2019-05-21T10:30:48.663Z,17.9
2019-05-21T10:31:48.647Z,17.9
2019-05-21T10:32:48.696Z,18.1
2019-05-21T10:33:48.743Z,18.1
2019-05-21T10:34:48.764Z,18.1
2019-05-21T10:35:48.777Z,17.8
2019-05-21T10:36:48.846Z,17.9
2019-05-21T10:37:54.792Z,17.9
2019-05-21T10:38:48.930Z,18.2
2019-05-21T10:39:48.935Z,18.2
2019-05-21T10:40:48.953Z,18.2
2019-05-21T10:41:49.027Z,18.4
2019-05-21T10:42:49.042Z,18.5
2019-05-21T10:43:49.043Z,18.6
2019-05-21T10:44:49.058Z,18.8
2019-05-21T10:45:49.070Z,18.9
2019-05-21T10:46:49.085Z,18.9
2019-05-21T10:47:49.098Z,18.8
2019-05-21T10:48:49.110Z,18.7
2019-05-21T10:49:49.131Z,18.7
2019-05-21T10:50:49.144Z,18.7
2019-05-21T10:51:49.152Z,18.6
2019-05-21T10:52:49.212Z,18.5
2019-05-21T10:53:49.260Z,18.6
2019-05-21T10:54:49.275Z,18.6
2019-05-21T10:55:49.342Z,18.7
2019-05-21T10:56:49.324Z,18.8
2019-05-21T10:57:49.378Z,18.9
2019-05-21T10:58:49.372Z,19.0
2019-05-21T10:59:49.385Z,18.8
2019-05-21T11:00:49.411Z,18.9
2019-05-21T11:01:49.467Z,18.8
2019-05-21T11:02:49.436Z,19.0
2019-05-21T11:03:49.452Z,18.9
2019-05-21T11:04:49.455Z,19.0
2019-05-21T11:05:49.480Z,19.1
2019-05-21T11:06:49.512Z,19.1
2019-05-21T11:07:49.521Z,19.1
2019-05-21T11:08:49.544Z,19.2
2019-05-21T11:09:49.583Z,19.2
2019-05-21T11:10:49.587Z,19.3
2019-05-21T11:11:49.656Z,19.3
2019-05-21T11:12:49.618Z,19.1
2019-05-21T11:13:49.639Z,18.9
2019-05-21T11:14:49.654Z,19.0
2019-05-21T11:15:49.722Z,18.9
2019-05-21T11:16:49.738Z,19.0
2019-05-21T11:17:59.111Z,19.0
2019-05-21T11:18:49.791Z,19.0
2019-05-21T11:19:49.818Z,19.1
2019-05-21T11:20:49.828Z,19.2
2019-05-21T11:21:49.867Z,19.2
2019-05-21T11:22:49.881Z,19.2
2019-05-21T11:23:50.152Z,19.2
2019-05-21T11:24:49.951Z,19.3
2019-05-21T11:25:49.964Z,19.3
2019-05-21T11:26:49.987Z,19.3
2019-05-21T11:27:50.005Z,19.3
2019-05-21T11:28:50.005Z,19.4
2019-05-21T11:29:50.001Z,19.5
2019-05-21T11:30:50.024Z,19.5
2019-05-21T11:33:00.088Z,19.2
2019-05-21T11:34:00.125Z,19.0
2019-05-21T11:35:00.153Z,18.7
2019-05-21T11:36:00.144Z,18.7
2019-05-21T11:37:20.167Z,18.6
2019-05-21T11:38:00.166Z,18.6
2019-05-21T11:38:50.174Z,18.5
2019-05-21T11:39:50.187Z,18.4
2019-05-21T11:40:51.249Z,18.3
2019-05-21T11:43:00.307Z,18.1
2019-05-21T11:44:00.286Z,18.1
2019-05-21T11:45:00.287Z,18.0
2019-05-21T11:46:02.943Z,17.8
2019-05-21T11:47:00.320Z,17.8
2019-05-21T11:48:00.349Z,17.8
2019-05-21T11:49:00.350Z,17.8
2019-05-21T11:50:00.421Z,17.7
2019-05-21T11:51:00.484Z,17.7
2019-05-21T11:52:20.472Z,17.6
2019-05-21T11:53:00.476Z,17.8
2019-05-21T11:53:50.481Z,17.8
2019-05-21T11:54:50.535Z,17.8
2019-05-21T11:55:50.551Z,17.8
2019-05-21T11:58:00.567Z,17.9
2019-05-21T11:59:00.663Z,17.8
2019-05-21T12:00:00.664Z,17.8
2019-05-21T12:01:00.685Z,17.7
2019-05-21T12:02:20.680Z,17.7
2019-05-21T12:03:00.695Z,17.7
2019-05-21T12:04:00.711Z,17.7
2019-05-21T12:04:50.712Z,17.7
2019-05-21T12:05:50.745Z,17.6
2019-05-21T12:06:50.757Z,17.7
2019-05-21T12:07:50.764Z,17.6
2019-05-21T12:08:56.557Z,17.6
2019-05-21T12:09:50.806Z,17.5
2019-05-21T12:10:50.862Z,17.4
2019-05-21T12:13:01.034Z,17.4
2019-05-21T12:14:01.014Z,17.4
2019-05-21T12:15:01.012Z,17.4
2019-05-21T12:16:01.028Z,17.5
2019-05-21T12:17:01.051Z,17.4
2019-05-21T12:18:01.124Z,17.5
2019-05-21T12:19:01.168Z,17.5
2019-05-21T12:20:01.157Z,17.4
2019-05-21T12:21:01.158Z,17.4
2019-05-21T12:22:21.180Z,17.4
2019-05-21T12:23:01.189Z,17.4
2019-05-21T12:23:51.195Z,17.4
2019-05-21T12:24:51.211Z,17.3
2019-05-21T12:25:51.231Z,17.4
2019-05-21T12:26:51.251Z,17.3
2019-05-21T12:27:51.257Z,17.4
2019-05-21T12:28:51.302Z,17.3
2019-05-21T12:29:51.302Z,17.5
2019-05-21T12:30:51.338Z,17.5
2019-05-21T12:33:01.373Z,17.7
2019-05-21T12:34:01.408Z,17.7
2019-05-21T12:35:01.406Z,17.6
2019-05-21T12:36:01.418Z,17.9
2019-05-21T12:37:21.434Z,17.8
2019-05-21T12:38:01.494Z,18.0
2019-05-21T12:38:51.493Z,17.9
2019-05-21T12:39:51.477Z,18.0
2019-05-21T12:40:51.490Z,18.1
2019-05-21T12:43:01.531Z,18.1
2019-05-21T12:44:01.539Z,18.3
2019-05-21T12:45:01.626Z,18.4
2019-05-21T12:46:01.560Z,18.4
2019-05-21T12:47:21.575Z,18.4
2019-05-21T12:48:01.628Z,18.3
2019-05-21T12:48:51.705Z,18.3
2019-05-21T12:49:51.775Z,18.2
2019-05-21T12:50:51.734Z,18.1
2019-05-21T12:53:01.802Z,18.0
2019-05-21T12:54:01.930Z,17.8
2019-05-21T12:55:01.960Z,17.8
2019-05-21T12:56:01.931Z,17.7
2019-05-21T12:57:22.043Z,17.6
2019-05-21T12:58:02.038Z,17.8
2019-05-21T12:58:52.052Z,17.6
2019-05-21T12:59:52.052Z,17.7
2019-05-21T13:00:52.059Z,17.8
2019-05-21T13:03:02.092Z,17.8
2019-05-21T13:04:02.110Z,17.8
2019-05-21T13:05:02.119Z,17.7
2019-05-21T13:06:02.305Z,17.7
2019-05-21T13:07:22.216Z,17.7
2019-05-21T13:08:02.191Z,17.6
2019-05-21T13:09:02.182Z,17.5
2019-05-21T13:10:02.227Z,17.6
2019-05-21T13:11:02.230Z,17.4
2019-05-21T13:12:22.247Z,17.3
2019-05-21T13:17:32.380Z,17.2
2019-05-21T13:22:32.448Z,17.1
2019-05-21T13:23:22.461Z,17.1
2019-05-21T13:24:22.470Z,17.1
2019-05-21T13:27:32.517Z,17.1
2019-05-21T13:28:22.603Z,17.2
2019-05-21T13:29:22.617Z,17.1
2019-05-21T13:30:22.610Z,17.2
2019-05-21T13:31:22.714Z,17.1
2019-05-21T13:33:32.709Z,17.2
2019-05-21T13:34:32.714Z,17.2
2019-05-21T13:35:22.752Z,17.3
2019-05-21T13:36:22.769Z,17.2
2019-05-21T13:52:33.082Z,17.6
2019-05-21T13:57:33.201Z,17.6
2019-05-21T14:02:33.280Z,17.5
2019-05-21T14:05:03.347Z,17.5
2019-05-21T14:06:03.412Z,17.5
2019-05-21T14:07:23.444Z,17.5
2019-05-21T14:09:03.466Z,17.6
2019-05-21T14:10:13.831Z,17.7
2019-05-21T14:11:03.482Z,17.7
2019-05-21T14:12:23.579Z,17.7
2019-05-21T14:13:03.572Z,17.7
2019-05-21T14:14:03.595Z,17.6
2019-05-21T14:15:03.659Z,17.6
2019-05-21T14:17:33.711Z,17.5
2019-05-21T14:18:03.730Z,17.6
2019-05-21T14:19:03.816Z,17.6
2019-05-21T14:59:34.705Z,16.7
2019-05-21T15:08:34.840Z,16.8
2019-05-21T15:09:04.856Z,16.7
2019-05-21T15:10:04.841Z,16.8
2019-05-21T15:11:04.890Z,16.7
2019-05-21T15:12:24.916Z,16.7
2019-05-21T15:17:35.150Z,16.7
2019-05-21T15:22:35.208Z,16.6
2019-05-21T15:27:35.322Z,16.6
2019-05-21T15:37:35.616Z,16.5
2019-05-21T15:47:25.867Z,16.4
2019-05-21T15:52:26.013Z,16.2
2019-05-21T15:57:26.151Z,16.0
2019-05-21T16:02:26.189Z,16.0
2019-05-21T16:12:26.333Z,15.9
2019-05-21T16:17:26.490Z,15.7
2019-05-21T16:22:26.563Z,15.7
2019-05-21T16:27:26.638Z,15.7
2019-05-21T16:32:26.910Z,15.7
2019-05-21T16:37:27.029Z,15.7
2019-05-21T16:42:27.098Z,15.7
2019-05-21T16:47:42.402Z,15.7
2019-05-21T16:52:27.267Z,15.7
2019-05-21T16:57:27.416Z,15.8
2019-05-21T17:02:37.541Z,15.9
2019-05-21T17:03:27.546Z,16.0
2019-05-21T17:04:27.551Z,16.1
2019-05-21T17:05:27.559Z,16.1
2019-05-21T17:06:27.617Z,16.1
2019-05-21T17:12:07.805Z,16.3
2019-05-21T17:12:57.809Z,16.2
2019-05-21T17:13:57.813Z,16.3
2019-05-21T17:14:57.927Z,16.3
2019-05-21T17:15:57.921Z,16.3
2019-05-21T17:22:07.994Z,16.2
2019-05-21T17:23:08.114Z,16.2
2019-05-21T17:24:08.063Z,16.3
2019-05-21T17:24:58.075Z,16.2
2019-05-21T17:25:58.099Z,16.1
2019-05-21T17:27:58.173Z,16.2
2019-05-21T17:28:58.179Z,16.1
2019-05-21T17:29:58.195Z,16.2
2019-05-21T17:30:58.216Z,16.1
2019-05-21T17:32:08.229Z,16.2
2019-05-21T17:33:08.231Z,16.2
2019-05-21T17:34:08.237Z,16.2
2019-05-21T17:35:08.259Z,16.1
2019-05-21T17:36:08.266Z,16.1
2019-05-21T17:37:08.285Z,16.1
2019-05-21T17:38:08.343Z,16.1
2019-05-21T17:39:08.305Z,16.1
2019-05-21T17:40:08.361Z,16.1
2019-05-21T17:41:08.347Z,16.1
2019-05-21T17:42:58.368Z,16.0
2019-05-21T17:43:58.368Z,16.0
2019-05-21T17:44:58.385Z,16.0
2019-05-21T17:45:58.418Z,16.0
2019-05-21T17:47:08.461Z,16.0
2019-05-21T17:47:58.461Z,15.9
2019-05-21T17:48:58.502Z,15.9
2019-05-21T17:49:58.482Z,16.0
2019-05-21T17:50:58.494Z,15.9
2019-05-21T17:52:58.527Z,15.8
2019-05-21T17:53:58.566Z,15.7
2019-05-21T17:54:58.595Z,15.7
2019-05-21T17:55:58.603Z,15.8
2019-05-21T17:56:58.621Z,15.8
2019-05-21T17:57:58.620Z,15.7
2019-05-21T17:58:58.635Z,15.7
2019-05-21T17:59:58.643Z,15.8
2019-05-21T18:00:58.670Z,15.8
2019-05-21T18:02:58.747Z,15.7
2019-05-21T18:03:58.784Z,15.7
2019-05-21T18:04:58.839Z,15.7
2019-05-21T18:05:58.878Z,15.8
2019-05-21T18:07:58.890Z,15.6
2019-05-21T18:08:59.017Z,15.7
2019-05-21T18:09:58.940Z,15.6
2019-05-21T18:10:58.943Z,15.6
2019-05-21T18:12:59.038Z,15.5
2019-05-21T18:13:59.040Z,15.5
2019-05-21T18:14:59.038Z,15.4
2019-05-21T18:15:59.051Z,15.5
2019-05-21T18:17:59.091Z,15.4
2019-05-21T18:18:59.106Z,15.4
2019-05-21T18:19:59.125Z,15.4
2019-05-21T18:20:59.136Z,15.4
2019-05-21T18:22:59.145Z,15.4
2019-05-21T18:23:59.158Z,15.4
2019-05-21T18:24:59.238Z,15.4
2019-05-21T18:25:59.218Z,15.4
2019-05-21T18:26:59.238Z,15.3
2019-05-21T18:27:59.329Z,15.4
2019-05-21T18:28:59.311Z,15.3
2019-05-21T18:29:59.326Z,15.4
2019-05-21T18:30:59.323Z,15.4
2019-05-21T18:31:59.352Z,15.4
2019-05-21T18:32:59.343Z,15.3
2019-05-21T18:33:59.355Z,15.4
2019-05-21T18:34:59.379Z,15.3
2019-05-21T18:35:59.378Z,15.3
2019-05-21T18:36:59.388Z,15.3
2019-05-21T18:37:59.402Z,15.3
2019-05-21T18:38:59.421Z,15.2
2019-05-21T18:39:59.434Z,15.2
2019-05-21T18:40:59.446Z,15.3
2019-05-21T18:41:59.520Z,15.3
2019-05-21T18:42:59.530Z,15.2
2019-05-21T18:43:59.554Z,15.3
2019-05-21T18:44:59.643Z,15.2
2019-05-21T18:45:59.723Z,15.2
2019-05-21T18:46:59.738Z,15.1
2019-05-21T18:47:59.861Z,15.2
2019-05-21T18:48:59.812Z,15.1
2019-05-21T18:49:59.848Z,15.1
2019-05-21T18:50:59.831Z,15.1
2019-05-21T18:51:59.869Z,15.1
2019-05-21T18:52:59.892Z,15.1
2019-05-21T18:53:59.904Z,15.1
2019-05-21T18:56:09.970Z,15.1
2019-05-21T18:57:09.946Z,15.0
2019-05-21T18:58:09.961Z,15.1
2019-05-21T18:59:09.978Z,15.1
2019-05-21T19:00:10.007Z,15.1
2019-05-21T19:01:10.007Z,15.0
2019-05-21T19:02:10.011Z,15.1
2019-05-21T19:03:10.041Z,15.1
2019-05-21T19:04:10.038Z,15.0
2019-05-21T19:05:10.179Z,15.0
2019-05-21T19:06:10.165Z,15.1
2019-05-21T19:07:10.831Z,15.0
2019-05-21T19:08:10.187Z,15.0
2019-05-21T19:09:10.232Z,15.1
2019-05-21T19:10:10.257Z,15.0
2019-05-21T19:11:10.205Z,15.0
2019-05-21T19:12:10.268Z,15.0
2019-05-21T19:13:10.293Z,15.0
2019-05-21T19:14:10.293Z,15.0
2019-05-21T19:16:10.332Z,15.1
2019-05-21T19:17:10.361Z,15.0
2019-05-21T19:18:10.367Z,15.1
2019-05-21T19:19:10.387Z,14.9
2019-05-21T19:20:10.422Z,14.9
2019-05-21T19:21:10.544Z,14.9
2019-05-21T19:22:10.556Z,15.0
2019-05-21T19:23:10.618Z,15.0
2019-05-21T19:24:10.726Z,15.0
2019-05-21T19:25:10.774Z,14.9
2019-05-21T19:26:10.730Z,15.0
2019-05-21T19:27:10.760Z,14.9
2019-05-21T19:28:10.795Z,14.9
2019-05-21T19:29:10.826Z,14.9
2019-05-21T19:30:10.830Z,14.9
2019-05-21T19:31:10.909Z,14.9
2019-05-21T19:32:11.043Z,14.9
2019-05-21T19:33:11.046Z,14.8
2019-05-21T19:34:11.111Z,14.9
2019-05-21T19:36:11.096Z,14.9
2019-05-21T19:37:11.113Z,14.9
2019-05-21T19:38:11.122Z,14.8
2019-05-21T19:39:11.183Z,14.8
2019-05-21T19:41:11.248Z,14.7
2019-05-21T19:42:11.183Z,14.8
2019-05-21T19:43:11.307Z,14.8
2019-05-21T19:44:11.322Z,14.8
2019-05-21T19:50:31.492Z,14.7
2019-05-21T19:55:31.623Z,14.7
2019-05-21T20:00:31.665Z,14.6
2019-05-21T20:05:31.811Z,14.5
2019-05-21T20:10:34.158Z,14.4
2019-05-21T20:15:32.315Z,14.3
2019-05-21T20:16:22.302Z,14.3
2019-05-21T20:20:32.217Z,14.1
2019-05-21T20:25:32.328Z,14.2
2019-05-21T20:30:32.410Z,14.1
2019-05-21T20:35:32.490Z,14.0
2019-05-21T20:40:32.610Z,14.0
2019-05-21T20:45:32.720Z,13.8
2019-05-21T20:50:32.810Z,13.8
2019-05-21T20:55:32.884Z,13.7
2019-05-21T21:00:32.970Z,13.7
2019-05-21T21:05:33.046Z,13.6
2019-05-21T21:10:33.162Z,13.6
2019-05-21T21:15:33.247Z,13.5
2019-05-21T21:20:33.343Z,13.3
2019-05-21T21:22:23.427Z,13.3
2019-05-21T21:25:33.427Z,13.3
2019-05-21T21:26:23.498Z,13.1
2019-05-21T21:30:33.594Z,13.1
2019-05-21T21:31:23.719Z,13.1
2019-05-21T21:32:23.739Z,13.0
2019-05-21T21:33:23.752Z,13.1
2019-05-21T21:34:23.756Z,13.1
2019-05-21T21:35:33.820Z,12.9
2019-05-21T21:36:23.824Z,13.0
2019-05-21T21:37:23.842Z,13.0
2019-05-21T21:38:23.851Z,13.0
2019-05-21T21:39:33.896Z,12.9
2019-05-21T21:40:33.906Z,13.0
2019-05-21T21:41:34.024Z,13.0
2019-05-21T21:42:33.975Z,13.0
2019-05-21T21:43:33.985Z,12.9
2019-05-21T21:44:44.022Z,12.9
2019-05-21T21:50:04.146Z,12.9
2019-05-21T21:51:04.116Z,12.8
2019-05-21T21:52:04.132Z,12.8
2019-05-21T21:53:04.149Z,12.7
2019-05-21T21:54:04.153Z,12.7
2019-05-21T21:55:14.199Z,12.7
2019-05-21T21:56:04.178Z,12.8
2019-05-21T21:57:04.185Z,12.7
2019-05-21T21:58:04.202Z,12.8
2019-05-21T21:59:04.213Z,12.7
2019-05-21T22:00:14.276Z,12.9
2019-05-21T22:01:04.239Z,12.9
2019-05-21T22:02:04.263Z,12.9
2019-05-21T22:03:04.309Z,12.8
2019-05-21T22:04:04.324Z,12.9
2019-05-21T22:05:14.403Z,13.1
2019-05-21T22:06:04.410Z,13.1
2019-05-21T22:07:04.436Z,13.1
2019-05-21T22:08:04.440Z,13.1
2019-05-21T22:09:04.457Z,13.1
2019-05-21T22:10:14.506Z,13.1
2019-05-21T22:11:04.533Z,13.2
2019-05-21T22:12:04.534Z,13.1
2019-05-21T22:13:04.583Z,13.2
2019-05-21T22:14:04.635Z,13.1
2019-05-21T22:15:14.651Z,13.3
2019-05-21T22:16:04.664Z,13.2
2019-05-21T22:17:04.689Z,13.3
2019-05-21T22:18:04.714Z,13.3
2019-05-21T22:19:04.745Z,13.2
2019-05-21T22:20:14.772Z,13.3
2019-05-21T22:21:04.820Z,13.2
2019-05-21T22:22:04.822Z,13.3
2019-05-21T22:23:04.832Z,13.1
2019-05-21T22:24:04.845Z,13.3
2019-05-21T22:25:14.881Z,13.2
2019-05-21T22:26:15.002Z,13.2
2019-05-21T22:27:15.013Z,13.3
2019-05-21T22:28:15.035Z,13.2
2019-05-21T22:29:15.067Z,13.1
2019-05-21T22:31:15.115Z,13.1
2019-05-21T22:32:16.698Z,13.1
2019-05-21T22:33:15.154Z,13.0
2019-05-21T22:34:15.164Z,12.9
2019-05-21T22:39:35.285Z,12.8
2019-05-21T22:40:35.346Z,12.7
2019-05-21T22:41:35.397Z,12.8
2019-05-21T22:42:35.398Z,12.7
2019-05-21T22:43:35.415Z,12.7
2019-05-21T22:44:45.471Z,12.6
2019-05-21T22:50:05.774Z,12.5
2019-05-21T22:55:05.849Z,12.3
2019-05-21T23:00:06.210Z,12.3
2019-05-21T23:05:06.131Z,12.3
2019-05-21T23:10:06.283Z,12.2
2019-05-21T23:15:06.387Z,12.4
2019-05-21T23:20:06.482Z,12.4
2019-05-21T23:22:56.589Z,12.5
2019-05-21T23:25:06.616Z,12.5
2019-05-21T23:30:06.759Z,12.6
2019-05-21T23:35:06.813Z,12.6
2019-05-21T23:36:06.836Z,12.6
2019-05-21T23:37:06.853Z,12.5
2019-05-21T23:38:06.895Z,12.6
2019-05-21T23:39:06.885Z,12.5
2019-05-21T23:40:16.898Z,12.6
2019-05-21T23:45:07.041Z,12.6
2019-05-21T23:50:07.242Z,12.7
2019-05-21T23:55:07.313Z,12.6
